Time;durP1;ratioP1;P1;durP2;ratioP2;P2;SDS_P1;SDS_P2;PMS_P1;PMS_P2;Temp;Humidity;BMP_temperature;BMP_pressure;BME280_temperature;BME280_humidity;BME280_pressure;Samples;Min_cycle;Max_cycle;Signal;HPM_P1;HPM_P2
2022/04/14 00:02:03;;;;;;;2.67;2.47;;;;;;;;;;5116997;28;20204;-91
2022/04/14 00:04:30;;;;;;;3.30;3.00;;;;;;;;;;5116981;28;20223;-91
2022/04/14 00:06:57;;;;;;;4.37;2.67;;;;;;;;;;5116332;28;20235;-91
2022/04/14 00:09:25;;;;;;;3.40;2.73;;;;;;;;;;5116591;28;20219;-91
2022/04/14 00:11:53;;;;;;;3.03;2.30;;;;;;;;;;5116465;28;20207;-93
2022/04/14 00:14:21;;;;;;;3.23;2.57;;;;;;;;;;5116876;28;20245;-91
2022/04/14 00:16:51;;;;;;;2.67;2.47;;;;;;;;;;5116652;28;20236;-91
2022/04/14 00:19:18;;;;;;;4.20;2.37;;;;;;;;;;5116606;28;20204;-90
2022/04/14 00:21:46;;;;;;;2.63;2.43;;;;;;;;;;5116601;28;20214;-91
2022/04/14 00:24:13;;;;;;;10.63;2.80;;;;;;;;;;5116592;28;20204;-91
2022/04/14 00:26:41;;;;;;;3.73;2.60;;;;;;;;;;5116270;28;20227;-92
2022/04/14 00:29:11;;;;;;;3.00;2.70;;;;;;;;;;5116555;28;20214;-90
2022/04/14 00:31:38;;;;;;;2.83;2.07;;;;;;;;;;5116564;28;20279;-91
2022/04/14 00:34:06;;;;;;;2.97;2.63;;;;;;;;;;5116408;28;20208;-91
2022/04/14 00:36:33;;;;;;;3.07;2.43;;;;;;;;;;5115807;28;20641;-91
2022/04/14 00:39:01;;;;;;;2.73;2.40;;;;;;;;;;5116318;28;20204;-91
2022/04/14 00:41:28;;;;;;;2.80;2.60;;;;;;;;;;5115874;28;20214;-91
2022/04/14 00:43:56;;;;;;;2.87;2.47;;;;;;;;;;5116010;28;20215;-92
2022/04/14 00:46:25;;;;;;;3.10;2.63;;;;;;;;;;5115864;28;20278;-91
2022/04/14 00:48:53;;;;;;;3.73;2.77;;;;;;;;;;5116139;28;20555;-91
2022/04/14 00:51:21;;;;;;;2.90;2.60;;;;;;;;;;5115483;28;20204;-91
2022/04/14 00:53:48;;;;;;;5.50;2.67;;;;;;;;;;5115680;28;20203;-92
2022/04/14 00:56:15;;;;;;;4.33;2.30;;;;;;;;;;5116022;28;20224;-92
2022/04/14 00:58:43;;;;;;;5.40;2.40;;;;;;;;;;5116160;28;20204;-91
2022/04/14 01:01:12;;;;;;;3.00;2.27;;;;;;;;;;5115280;28;20210;-91
2022/04/14 01:03:41;;;;;;;4.87;2.70;;;;;;;;;;5115478;28;20212;-90
2022/04/14 01:06:10;;;;;;;3.20;2.47;;;;;;;;;;5115234;28;20235;-90
2022/04/14 01:08:37;;;;;;;4.40;2.70;;;;;;;;;;5115458;28;20268;-91
2022/04/14 01:11:05;;;;;;;2.93;2.57;;;;;;;;;;5114357;28;20204;-91
2022/04/14 01:13:32;;;;;;;5.23;3.13;;;;;;;;;;5115387;28;20204;-91
2022/04/14 01:16:00;;;;;;;2.83;2.63;;;;;;;;;;5115391;28;20204;-91
2022/04/14 01:18:28;;;;;;;6.27;2.53;;;;;;;;;;5115209;28;20203;-91
2022/04/14 01:20:57;;;;;;;5.30;2.77;;;;;;;;;;5115202;28;20212;-91
2022/04/14 01:23:30;;;;;;;3.20;2.90;;;;;;;;;;5115494;28;20257;-91
2022/04/14 01:25:59;;;;;;;5.17;2.63;;;;;;;;;;5114981;28;20215;-91
2022/04/14 01:28:26;;;;;;;2.87;2.43;;;;;;;;;;5115337;28;20219;-91
2022/04/14 01:30:53;;;;;;;5.23;3.37;;;;;;;;;;5115259;28;20208;-91
2022/04/14 01:33:21;;;;;;;3.17;2.80;;;;;;;;;;5115208;28;20214;-91
2022/04/14 01:35:48;;;;;;;3.97;2.77;;;;;;;;;;5115007;28;20215;-91
2022/04/14 01:38:15;;;;;;;2.70;2.50;;;;;;;;;;5114725;28;20228;-92
2022/04/14 01:40:43;;;;;;;2.87;2.50;;;;;;;;;;5115112;28;20208;-91
2022/04/14 01:43:12;;;;;;;5.13;2.57;;;;;;;;;;5114923;28;20212;-92
2022/04/14 01:45:39;;;;;;;3.97;2.53;;;;;;;;;;5115165;28;20212;-91
2022/04/14 01:48:06;;;;;;;3.80;2.67;;;;;;;;;;5114650;28;20227;-92
2022/04/14 01:50:34;;;;;;;3.37;2.33;;;;;;;;;;5114785;28;20204;-92
2022/04/14 01:53:01;;;;;;;3.27;2.47;;;;;;;;;;5115070;28;20207;-92
2022/04/14 01:55:28;;;;;;;2.97;2.43;;;;;;;;;;5114989;28;20250;-91
2022/04/14 01:57:56;;;;;;;3.27;2.50;;;;;;;;;;5114959;28;20225;-91
2022/04/14 02:00:24;;;;;;;4.90;2.80;;;;;;;;;;5114987;28;20204;-92
2022/04/14 02:02:52;;;;;;;3.90;2.43;;;;;;;;;;5114370;28;20215;-92
2022/04/14 02:05:19;;;;;;;2.53;2.33;;;;;;;;;;5114437;28;20280;-92
2022/04/14 02:07:46;;;;;;;3.93;2.67;;;;;;;;;;5114296;28;20228;-91
2022/04/14 02:10:14;;;;;;;4.83;3.07;;;;;;;;;;5114506;28;20231;-91
2022/04/14 02:12:45;;;;;;;3.63;3.27;;;;;;;;;;5114568;28;20294;-92
2022/04/14 02:15:12;;;;;;;4.63;2.80;;;;;;;;;;5114413;28;20197;-91
2022/04/14 02:17:51;;;;;;;6.03;2.90;;;;;;;;;;5114153;28;20220;-92
2022/04/14 02:20:18;;;;;;;4.93;2.80;;;;;;;;;;5113812;28;20538;-92
2022/04/14 02:22:45;;;;;;;3.20;2.67;;;;;;;;;;5113679;28;20208;-91
2022/04/14 02:25:13;;;;;;;3.00;2.70;;;;;;;;;;5113944;28;20212;-91
2022/04/14 02:27:40;;;;;;;3.33;3.00;;;;;;;;;;5113819;28;20231;-91
2022/04/14 02:30:08;;;;;;;3.00;2.70;;;;;;;;;;5114159;28;20207;-93
2022/04/14 02:32:36;;;;;;;4.53;2.40;;;;;;;;;;5113847;28;20261;-91
2022/04/14 02:35:05;;;;;;;4.03;2.60;;;;;;;;;;5113724;28;20603;-91
2022/04/14 02:37:32;;;;;;;3.50;2.43;;;;;;;;;;5113895;28;20244;-92
2022/04/14 02:39:59;;;;;;;3.03;2.63;;;;;;;;;;5113947;28;20211;-91
2022/04/14 02:42:27;;;;;;;4.67;2.53;;;;;;;;;;5113909;28;20215;-91
2022/04/14 02:44:54;;;;;;;2.93;2.70;;;;;;;;;;5114007;28;20209;-91
2022/04/14 02:47:21;;;;;;;2.97;2.70;;;;;;;;;;5113896;28;20223;-91
2022/04/14 02:49:49;;;;;;;2.67;2.47;;;;;;;;;;5113642;28;20655;-92
2022/04/14 02:52:17;;;;;;;4.40;2.60;;;;;;;;;;5113662;28;20232;-92
2022/04/14 02:54:45;;;;;;;3.20;2.90;;;;;;;;;;5113825;28;20204;-92
2022/04/14 02:57:12;;;;;;;6.13;3.13;;;;;;;;;;5113097;28;20220;-91
2022/04/14 02:59:39;;;;;;;3.03;2.80;;;;;;;;;;5113645;28;20216;-91
2022/04/14 03:02:07;;;;;;;3.57;2.70;;;;;;;;;;5113187;28;20576;-92
2022/04/14 03:04:35;;;;;;;2.80;2.57;;;;;;;;;;5113633;28;20260;-92
2022/04/14 03:07:02;;;;;;;2.70;2.50;;;;;;;;;;5113164;28;20223;-91
2022/04/14 03:09:30;;;;;;;4.90;3.00;;;;;;;;;;5113329;28;20204;-93
2022/04/14 03:11:58;;;;;;;5.23;3.07;;;;;;;;;;5113270;28;20208;-91
2022/04/14 03:14:25;;;;;;;3.20;2.87;;;;;;;;;;5113243;28;20211;-91
2022/04/14 03:16:52;;;;;;;3.60;3.00;;;;;;;;;;5113058;28;20678;-91
2022/04/14 03:19:20;;;;;;;3.00;2.60;;;;;;;;;;5113214;28;20204;-92
2022/04/14 03:21:48;;;;;;;4.10;2.80;;;;;;;;;;5113381;28;20201;-92
2022/04/14 03:24:15;;;;;;;4.80;3.03;;;;;;;;;;5113246;28;20208;-91
2022/04/14 03:26:44;;;;;;;2.67;2.47;;;;;;;;;;5113162;28;20223;-91
2022/04/14 03:29:11;;;;;;;3.57;2.90;;;;;;;;;;5113332;28;20208;-91
2022/04/14 03:31:38;;;;;;;2.70;2.50;;;;;;;;;;5113335;28;20236;-91
2022/04/14 03:34:06;;;;;;;4.17;2.97;;;;;;;;;;5112431;28;20609;-92
2022/04/14 03:36:33;;;;;;;3.70;3.33;;;;;;;;;;5113126;28;20307;-92
2022/04/14 03:39:00;;;;;;;5.07;3.30;;;;;;;;;;5113035;28;20646;-91
2022/04/14 03:41:28;;;;;;;3.30;3.00;;;;;;;;;;5113125;28;20212;-93
2022/04/14 03:43:57;;;;;;;4.20;2.90;;;;;;;;;;5112934;28;20603;-91
2022/04/14 03:46:24;;;;;;;4.73;3.47;;;;;;;;;;5112973;28;20235;-92
2022/04/14 03:48:51;;;;;;;3.30;3.00;;;;;;;;;;5112643;28;20273;-92
2022/04/14 03:51:19;;;;;;;4.83;2.90;;;;;;;;;;5112805;28;20287;-91
2022/04/14 03:53:46;;;;;;;3.77;3.00;;;;;;;;;;5112638;28;20211;-92
2022/04/14 03:56:14;;;;;;;2.80;2.43;;;;;;;;;;5112656;28;20241;-91
2022/04/14 03:58:41;;;;;;;4.83;2.83;;;;;;;;;;5113154;28;20302;-91
2022/04/14 04:01:10;;;;;;;3.40;3.10;;;;;;;;;;5112887;28;20295;-92
2022/04/14 04:03:37;;;;;;;3.10;2.80;;;;;;;;;;5112675;28;20880;-91
2022/04/14 04:06:05;;;;;;;3.77;2.67;;;;;;;;;;5112708;28;20210;-92
2022/04/14 04:08:32;;;;;;;7.07;2.80;;;;;;;;;;5112261;28;20220;-91
2022/04/14 04:11:00;;;;;;;4.27;3.13;;;;;;;;;;5112636;28;20212;-92
2022/04/14 04:13:27;;;;;;;3.53;3.20;;;;;;;;;;5112569;28;20211;-92
2022/04/14 04:15:55;;;;;;;2.63;2.43;;;;;;;;;;5112832;28;20203;-92
2022/04/14 04:18:23;;;;;;;3.40;3.10;;;;;;;;;;5112687;28;20201;-92
2022/04/14 04:20:51;;;;;;;3.20;2.50;;;;;;;;;;5112187;28;20438;-92
2022/04/14 04:23:18;;;;;;;4.03;2.80;;;;;;;;;;5112891;28;20207;-91
2022/04/14 04:25:45;;;;;;;4.20;3.17;;;;;;;;;;5112704;28;20223;-92
2022/04/14 04:28:12;;;;;;;3.77;2.97;;;;;;;;;;5112559;28;20690;-91
2022/04/14 04:30:40;;;;;;;3.93;2.77;;;;;;;;;;5112807;28;20216;-92
2022/04/14 04:33:07;;;;;;;2.80;2.60;;;;;;;;;;5112568;28;20269;-92
2022/04/14 04:35:36;;;;;;;3.77;3.00;;;;;;;;;;5112680;28;20200;-91
2022/04/14 04:38:04;;;;;;;5.47;2.77;;;;;;;;;;5112363;28;20216;-92
2022/04/14 04:40:31;;;;;;;5.43;3.43;;;;;;;;;;5112111;28;20200;-92
2022/04/14 04:42:59;;;;;;;4.47;2.90;;;;;;;;;;5112408;28;20196;-91
2022/04/14 04:45:26;;;;;;;3.53;3.20;;;;;;;;;;5112796;28;20212;-91
2022/04/14 04:47:53;;;;;;;4.30;3.00;;;;;;;;;;5115684;28;20224;-91
2022/04/14 04:50:20;;;;;;;6.80;3.13;;;;;;;;;;5116222;28;20232;-92
2022/04/14 04:52:49;;;;;;;3.20;2.63;;;;;;;;;;5115859;28;20231;-91
2022/04/14 04:55:17;;;;;;;3.40;2.67;;;;;;;;;;5116124;28;20212;-93
2022/04/14 04:57:44;;;;;;;3.83;3.07;;;;;;;;;;5116621;28;20232;-93
2022/04/14 05:00:12;;;;;;;3.70;2.77;;;;;;;;;;5116732;28;20269;-92
2022/04/14 05:02:39;;;;;;;4.73;3.27;;;;;;;;;;5115912;28;20207;-92
2022/04/14 05:05:07;;;;;;;4.73;3.00;;;;;;;;;;5116667;28;20311;-92
2022/04/14 05:07:34;;;;;;;3.50;3.20;;;;;;;;;;5115986;28;20231;-92
2022/04/14 05:10:03;;;;;;;4.17;2.90;;;;;;;;;;5115888;28;20260;-93
2022/04/14 05:12:30;;;;;;;5.80;3.50;;;;;;;;;;5123172;28;20217;-93
2022/04/14 05:14:58;;;;;;;3.03;2.70;;;;;;;;;;5116312;28;20257;-92
2022/04/14 05:17:25;;;;;;;3.90;2.90;;;;;;;;;;5115293;28;20284;-92
2022/04/14 05:19:52;;;;;;;3.27;2.83;;;;;;;;;;5115261;28;20215;-93
2022/04/14 05:22:20;;;;;;;4.93;3.20;;;;;;;;;;5115655;28;20200;-92
2022/04/14 05:24:47;;;;;;;3.40;3.10;;;;;;;;;;5115343;28;20257;-93
2022/04/14 05:27:26;;;;;;;3.50;3.17;;;;;;;;;;5121828;28;20228;-93
2022/04/14 05:29:55;;;;;;;4.50;3.70;;;;;;;;;;5116135;28;20231;-92
2022/04/14 05:35:04;;;;;;;5.37;3.30;;;;;;;;;;5114094;28;20200;-94
2022/04/14 05:37:59;;;;;;;3.80;3.37;;;;;;;;;;5115171;28;20229;-92
2022/04/14 05:40:27;;;;;;;4.20;3.17;;;;;;;;;;5115036;28;20694;-94
2022/04/14 05:42:54;;;;;;;5.00;3.50;;;;;;;;;;5115103;28;20207;-93
2022/04/14 05:45:23;;;;;;;3.43;3.13;;;;;;;;;;5115065;28;20208;-93
2022/04/14 05:47:50;;;;;;;3.63;3.10;;;;;;;;;;5114594;28;20227;-92
2022/04/14 05:50:19;;;;;;;10.57;4.40;;;;;;;;;;5114933;28;20234;-94
2022/04/14 05:52:46;;;;;;;6.10;3.33;;;;;;;;;;5114951;28;20206;-93
2022/04/14 05:55:13;;;;;;;6.90;3.70;;;;;;;;;;5114875;28;20207;-93
2022/04/14 05:57:41;;;;;;;3.40;3.10;;;;;;;;;;5114253;28;20223;-92
2022/04/14 06:00:09;;;;;;;3.60;2.90;;;;;;;;;;5114700;28;20655;-93
2022/04/14 06:02:41;;;;;;;4.77;3.20;;;;;;;;;;5113648;28;20235;-93
2022/04/14 06:05:10;;;;;;;5.20;3.40;;;;;;;;;;5111440;28;20560;-93
2022/04/14 06:07:38;;;;;;;4.83;3.50;;;;;;;;;;5111942;28;20223;-92
2022/04/14 06:10:05;;;;;;;4.63;3.60;;;;;;;;;;5113255;28;20735;-93
2022/04/14 06:12:33;;;;;;;3.60;3.30;;;;;;;;;;5111979;28;20219;-93
2022/04/14 06:15:00;;;;;;;4.97;3.83;;;;;;;;;;5111597;28;20211;-93
2022/04/14 06:17:27;;;;;;;3.90;3.50;;;;;;;;;;5111005;28;20632;-93
2022/04/14 06:19:56;;;;;;;4.70;3.70;;;;;;;;;;5113688;28;20269;-93
2022/04/14 06:22:24;;;;;;;3.43;3.13;;;;;;;;;;5114380;28;20217;-93
2022/04/14 06:24:52;;;;;;;3.80;3.47;;;;;;;;;;5116275;28;20230;-93
2022/04/14 06:27:19;;;;;;;4.97;3.43;;;;;;;;;;5116061;28;20253;-93
2022/04/14 06:29:46;;;;;;;4.93;3.60;;;;;;;;;;5116413;28;20615;-93
2022/04/14 06:32:14;;;;;;;3.43;3.13;;;;;;;;;;5116626;28;20208;-92
2022/04/14 06:34:41;;;;;;;4.10;3.70;;;;;;;;;;5114644;28;20207;-94
2022/04/14 06:37:08;;;;;;;4.70;3.53;;;;;;;;;;5115806;28;20273;-94
2022/04/14 06:39:37;;;;;;;5.53;3.77;;;;;;;;;;5115669;28;20215;-93
2022/04/14 06:42:05;;;;;;;4.20;3.77;;;;;;;;;;5112929;28;20211;-93
2022/04/14 06:44:32;;;;;;;6.33;3.83;;;;;;;;;;5113193;28;20203;-92
2022/04/14 06:46:59;;;;;;;6.67;4.13;;;;;;;;;;5114158;28;20640;-94
2022/04/14 06:49:27;;;;;;;11.93;6.13;;;;;;;;;;5115484;28;20223;-93
2022/04/14 06:51:54;;;;;;;6.17;4.17;;;;;;;;;;5114696;28;20220;-93
2022/04/14 06:54:21;;;;;;;6.53;4.10;;;;;;;;;;5114288;28;20200;-93
2022/04/14 06:56:50;;;;;;;5.50;3.80;;;;;;;;;;5114013;28;20249;-93
2022/04/14 06:59:17;;;;;;;6.17;3.70;;;;;;;;;;5113616;28;20200;-92
2022/04/14 07:01:44;;;;;;;9.00;3.83;;;;;;;;;;5112722;28;20283;-93
2022/04/14 07:04:12;;;;;;;5.50;3.90;;;;;;;;;;5111435;28;20206;-93
2022/04/14 07:06:39;;;;;;;6.83;4.40;;;;;;;;;;5113616;28;20232;-94
2022/04/14 07:09:07;;;;;;;6.97;4.30;;;;;;;;;;5112847;28;20303;-93
2022/04/14 07:11:34;;;;;;;8.43;4.33;;;;;;;;;;5111542;28;20205;-93
2022/04/14 07:14:03;;;;;;;8.77;4.20;;;;;;;;;;5112816;28;20237;-93
2022/04/14 07:16:30;;;;;;;7.53;5.23;;;;;;;;;;5112528;28;20232;-93
2022/04/14 07:18:57;;;;;;;4.90;4.37;;;;;;;;;;5112692;28;20196;-93
2022/04/14 07:21:25;;;;;;;8.13;4.97;;;;;;;;;;5112706;28;20216;-93
2022/04/14 07:23:52;;;;;;;11.00;5.20;;;;;;;;;;5112027;28;20268;-93
2022/04/14 07:26:20;;;;;;;8.97;5.30;;;;;;;;;;5112296;28;20226;-94
2022/04/14 07:28:47;;;;;;;8.93;5.37;;;;;;;;;;5112362;28;20222;-93
2022/04/14 07:31:16;;;;;;;9.27;5.93;;;;;;;;;;5113167;28;20214;-93
2022/04/14 07:33:43;;;;;;;9.33;6.03;;;;;;;;;;5112538;28;20668;-93
2022/04/14 07:36:12;;;;;;;9.40;7.90;;;;;;;;;;5113244;28;20271;-92
2022/04/14 07:38:40;;;;;;;12.10;7.17;;;;;;;;;;5112915;28;20707;-93
2022/04/14 07:41:07;;;;;;;12.17;9.13;;;;;;;;;;5113015;28;20577;-93
2022/04/14 07:43:34;;;;;;;17.73;11.00;;;;;;;;;;5112630;28;20624;-93
2022/04/14 07:46:03;;;;;;;10.90;6.43;;;;;;;;;;5112804;28;20209;-92
2022/04/14 07:48:32;;;;;;;12.00;7.93;;;;;;;;;;5112937;28;20230;-92
2022/04/14 07:51:01;;;;;;;14.90;10.13;;;;;;;;;;5113063;28;20264;-92
2022/04/14 07:53:28;;;;;;;16.70;10.80;;;;;;;;;;5113443;28;20554;-93
2022/04/14 07:55:55;;;;;;;16.73;10.50;;;;;;;;;;5112675;28;20216;-91
2022/04/14 07:58:23;;;;;;;14.07;11.10;;;;;;;;;;5112461;28;20207;-91
2022/04/14 08:00:51;;;;;;;18.83;11.67;;;;;;;;;;5112139;28;20213;-91
2022/04/14 08:03:18;;;;;;;19.47;12.07;;;;;;;;;;5112499;28;20243;-91
2022/04/14 08:05:48;;;;;;;17.80;11.90;;;;;;;;;;5112470;28;20200;-91
2022/04/14 08:08:17;;;;;;;15.67;11.63;;;;;;;;;;5112872;28;20226;-92
2022/04/14 08:10:45;;;;;;;17.73;11.17;;;;;;;;;;5112904;28;20215;-91
2022/04/14 08:13:12;;;;;;;18.77;11.37;;;;;;;;;;5112365;28;20275;-92
2022/04/14 08:15:40;;;;;;;18.47;11.50;;;;;;;;;;5112219;28;20204;-92
2022/04/14 08:18:07;;;;;;;13.90;11.03;;;;;;;;;;5114389;28;20276;-93
2022/04/14 08:20:35;;;;;;;14.97;10.97;;;;;;;;;;5113644;28;20222;-93
2022/04/14 08:23:12;;;;;;;16.80;11.13;;;;;;;;;;5116990;28;20202;-91
2022/04/14 08:25:44;;;;;;;22.83;11.07;;;;;;;;;;5116960;28;20297;-92
2022/04/14 08:28:12;;;;;;;15.00;11.03;;;;;;;;;;5116264;28;20255;-92
2022/04/14 08:30:40;;;;;;;13.77;10.53;;;;;;;;;;5116861;28;20531;-92
2022/04/14 08:33:10;;;;;;;17.30;11.50;;;;;;;;;;5115573;28;20211;-93
2022/04/14 08:35:40;;;;;;;13.50;10.20;;;;;;;;;;5116441;28;20200;-91
2022/04/14 08:38:09;;;;;;;14.97;11.57;;;;;;;;;;5116207;28;20237;-92
2022/04/14 08:43:46;;;;;;;18.57;11.57;;;;;;;;;;5116394;28;20258;-92
2022/04/14 08:46:16;;;;;;;17.17;11.13;;;;;;;;;;5116840;28;20256;-92
2022/04/14 08:48:45;;;;;;;17.30;10.87;;;;;;;;;;5116910;28;20583;-92
2022/04/14 08:51:14;;;;;;;24.97;12.13;;;;;;;;;;5116732;28;20290;-93
2022/04/14 08:53:43;;;;;;;17.77;11.53;;;;;;;;;;5116805;28;20210;-93
2022/04/14 08:56:12;;;;;;;18.97;12.30;;;;;;;;;;5116889;28;20256;-93
2022/04/14 08:58:40;;;;;;;18.07;13.20;;;;;;;;;;5116323;28;20226;-93
2022/04/14 09:01:31;;;;;;;16.37;11.30;;;;;;;;;;5098507;28;20213;-92
2022/04/14 09:04:01;;;;;;;17.63;11.63;;;;;;;;;;5116119;28;20247;-92
2022/04/14 09:06:33;;;;;;;21.50;12.43;;;;;;;;;;5115606;28;20708;-93
2022/04/14 09:09:02;;;;;;;15.50;10.80;;;;;;;;;;5115904;28;20224;-93
2022/04/14 09:11:30;;;;;;;16.83;11.40;;;;;;;;;;5115313;28;20207;-91
2022/04/14 09:14:01;;;;;;;17.33;11.50;;;;;;;;;;5115871;28;20669;-92
2022/04/14 09:16:30;;;;;;;20.90;11.83;;;;;;;;;;5117436;28;20731;-94
2022/04/14 09:18:57;;;;;;;13.57;10.93;;;;;;;;;;5111775;28;20206;-93
2022/04/14 09:21:25;;;;;;;16.47;11.10;;;;;;;;;;5113421;28;20274;-93
2022/04/14 09:23:52;;;;;;;14.83;11.60;;;;;;;;;;5116222;27;20207;-92
2022/04/14 09:26:24;;;;;;;20.47;12.20;;;;;;;;;;5122093;27;20230;-92
2022/04/14 09:29:01;;;;;;;21.53;12.90;;;;;;;;;;5113284;27;20231;-92
2022/04/14 09:31:29;;;;;;;18.07;11.60;;;;;;;;;;5099771;27;20672;-93
2022/04/14 09:33:57;;;;;;;14.57;12.73;;;;;;;;;;5108565;27;20858;-92
2022/04/14 09:36:39;;;;;;;34.43;22.63;;;;;;;;;;5113655;27;20218;-93
2022/04/14 09:39:06;;;;;;;20.77;12.47;;;;;;;;;;5114821;27;20765;-93
2022/04/14 09:41:37;;;;;;;19.27;13.53;;;;;;;;;;5120764;27;20227;-92
2022/04/14 09:44:05;;;;;;;22.60;12.30;;;;;;;;;;5109187;27;20220;-93
2022/04/14 09:46:33;;;;;;;17.67;11.67;;;;;;;;;;5116949;28;20675;-91
2022/04/14 09:49:06;;;;;;;19.47;12.10;;;;;;;;;;5126689;27;20220;-91
2022/04/14 09:51:35;;;;;;;16.90;11.13;;;;;;;;;;5131637;27;20215;-89
2022/04/14 09:54:06;;;;;;;15.37;11.67;;;;;;;;;;5109117;27;20267;-91
2022/04/14 09:56:54;;;;;;;20.73;12.50;;;;;;;;;;5105729;27;20228;-92
2022/04/14 09:59:24;;;;;;;17.37;11.33;;;;;;;;;;5110079;27;20206;-91
2022/04/14 10:02:08;;;;;;;16.03;11.83;;;;;;;;;;5124866;27;20235;-91
2022/04/14 10:04:36;;;;;;;19.00;13.07;;;;;;;;;;5128612;27;20657;-91
2022/04/14 10:07:08;;;;;;;18.07;12.27;;;;;;;;;;5126345;27;20629;-90
2022/04/14 10:09:38;;;;;;;15.33;12.33;;;;;;;;;;5115485;28;20249;-90
2022/04/14 10:12:06;;;;;;;18.27;12.23;;;;;;;;;;5114638;28;20292;-89
2022/04/14 10:14:35;;;;;;;19.73;12.27;;;;;;;;;;5115946;27;20209;-90
2022/04/14 10:17:05;;;;;;;18.87;11.37;;;;;;;;;;5116672;28;20273;-91
2022/04/14 10:19:33;;;;;;;17.50;12.50;;;;;;;;;;5135968;27;20253;-90
2022/04/14 10:22:00;;;;;;;16.40;11.83;;;;;;;;;;5136584;27;20192;-91
2022/04/14 10:24:28;;;;;;;17.10;11.67;;;;;;;;;;5116648;27;20199;-91
2022/04/14 10:26:55;;;;;;;19.13;11.20;;;;;;;;;;5118403;28;20250;-89
2022/04/14 10:29:25;;;;;;;16.17;11.33;;;;;;;;;;5122024;28;20265;-92
2022/04/14 10:31:55;;;;;;;15.63;12.13;;;;;;;;;;5111026;28;20211;-91
2022/04/14 10:34:23;;;;;;;18.00;11.97;;;;;;;;;;5132018;27;20204;-91
2022/04/14 10:36:51;;;;;;;18.17;11.83;;;;;;;;;;5123569;27;20647;-90
2022/04/14 10:39:20;;;;;;;16.93;11.23;;;;;;;;;;5135019;27;20727;-90
2022/04/14 10:41:50;;;;;;;17.37;10.70;;;;;;;;;;5116002;27;20219;-91
2022/04/14 10:44:45;;;;;;;19.53;11.13;;;;;;;;;;5112200;28;20660;-90
2022/04/14 10:47:14;;;;;;;16.67;11.27;;;;;;;;;;5094926;28;20230;-90
2022/04/14 10:49:41;;;;;;;16.37;10.53;;;;;;;;;;5102030;28;20228;-90
2022/04/14 10:52:24;;;;;;;15.60;10.03;;;;;;;;;;5116048;28;20223;-91
2022/04/14 10:54:58;;;;;;;14.43;9.57;;;;;;;;;;5115693;28;20231;-91
2022/04/14 10:57:38;;;;;;;15.87;10.63;;;;;;;;;;5124660;27;20224;-91
2022/04/14 11:00:20;;;;;;;16.10;9.33;;;;;;;;;;5105634;27;20292;-91
2022/04/14 11:03:05;;;;;;;15.83;9.23;;;;;;;;;;5105820;28;20204;-91
2022/04/14 11:05:42;;;;;;;16.43;9.43;;;;;;;;;;5113678;28;20209;-88
2022/04/14 11:08:26;;;;;;;16.57;10.13;;;;;;;;;;5106283;28;20232;-91
2022/04/14 11:10:54;;;;;;;16.73;11.10;;;;;;;;;;5115321;28;20274;-91
2022/04/14 11:13:22;;;;;;;13.60;9.10;;;;;;;;;;5113558;28;20216;-91
2022/04/14 11:15:50;;;;;;;13.20;9.67;;;;;;;;;;5103439;28;20262;-91
2022/04/14 11:18:19;;;;;;;15.83;8.87;;;;;;;;;;5123023;27;20230;-91
2022/04/14 11:20:56;;;;;;;14.87;9.03;;;;;;;;;;5124802;27;20209;-92
2022/04/14 11:23:26;;;;;;;13.07;10.20;;;;;;;;;;5107405;28;20614;-91
2022/04/14 11:25:54;;;;;;;12.37;8.63;;;;;;;;;;5115372;28;20236;-91
2022/04/14 11:28:24;;;;;;;12.77;9.47;;;;;;;;;;5124799;28;20223;-89
2022/04/14 11:30:52;;;;;;;13.83;7.80;;;;;;;;;;5115408;28;20594;-90
2022/04/14 11:33:27;;;;;;;15.23;8.07;;;;;;;;;;5097607;28;20830;-92
2022/04/14 11:35:55;;;;;;;8.90;7.50;;;;;;;;;;5123117;28;20267;-91
2022/04/14 11:38:41;;;;;;;11.10;7.17;;;;;;;;;;5121702;28;20228;-91
2022/04/14 11:41:08;;;;;;;12.93;7.30;;;;;;;;;;5115029;28;20198;-91
2022/04/14 11:43:36;;;;;;;10.53;7.43;;;;;;;;;;5112671;28;20205;-91
2022/04/14 11:46:05;;;;;;;13.70;9.00;;;;;;;;;;5117356;28;20246;-92
2022/04/14 11:48:34;;;;;;;11.93;7.50;;;;;;;;;;5108275;28;20220;-91
2022/04/14 11:51:01;;;;;;;13.33;7.93;;;;;;;;;;5113771;28;20254;-92
2022/04/14 11:53:30;;;;;;;11.70;7.63;;;;;;;;;;5117639;28;20210;-93
2022/04/14 11:55:58;;;;;;;9.17;6.77;;;;;;;;;;5119254;28;20212;-91
2022/04/14 11:58:26;;;;;;;16.37;8.30;;;;;;;;;;5119568;27;20219;-91
2022/04/14 12:00:53;;;;;;;13.67;7.30;;;;;;;;;;5128721;27;20218;-90
2022/04/14 12:03:31;;;;;;;13.47;7.43;;;;;;;;;;5130295;27;20206;-91
2022/04/14 12:06:05;;;;;;;10.80;8.10;;;;;;;;;;5144455;27;20200;-92
2022/04/14 12:08:32;;;;;;;11.50;7.33;;;;;;;;;;5144291;27;20247;-91
2022/04/14 12:11:03;;;;;;;11.13;6.57;;;;;;;;;;5147397;27;20215;-92
2022/04/14 12:13:34;;;;;;;10.40;6.00;;;;;;;;;;5146838;27;20220;-92
2022/04/14 12:16:01;;;;;;;10.73;6.60;;;;;;;;;;5138322;27;20229;-92
2022/04/14 12:18:29;;;;;;;12.80;6.80;;;;;;;;;;5133017;28;20202;-92
2022/04/14 12:20:56;;;;;;;14.43;8.60;;;;;;;;;;5125471;28;20261;-93
2022/04/14 12:23:26;;;;;;;14.10;8.00;;;;;;;;;;5119121;27;20236;-91
2022/04/14 12:25:56;;;;;;;8.53;6.83;;;;;;;;;;5119011;28;20202;-92
2022/04/14 12:28:24;;;;;;;14.27;7.00;;;;;;;;;;5132486;27;20273;-92
2022/04/14 12:31:10;;;;;;;11.83;6.80;;;;;;;;;;5130769;27;20217;-92
2022/04/14 12:33:37;;;;;;;10.77;6.30;;;;;;;;;;5115655;28;20214;-92
2022/04/14 12:36:10;;;;;;;8.97;6.13;;;;;;;;;;5118750;28;20205;-92
2022/04/14 12:38:46;;;;;;;12.43;6.70;;;;;;;;;;5125849;27;20200;-92
2022/04/14 12:41:17;;;;;;;10.17;5.57;;;;;;;;;;5129719;27;20234;-93
2022/04/14 12:43:47;;;;;;;10.53;6.60;;;;;;;;;;5113414;28;20228;-92
2022/04/14 12:46:27;;;;;;;6.63;5.40;;;;;;;;;;5125944;28;20222;-92
2022/04/14 12:49:08;;;;;;;9.47;6.43;;;;;;;;;;5127346;27;20197;-92
2022/04/14 12:51:45;;;;;;;8.20;5.03;;;;;;;;;;5108722;28;20633;-92
2022/04/14 12:54:17;;;;;;;9.10;4.93;;;;;;;;;;5112373;28;20208;-92
2022/04/14 12:56:56;;;;;;;9.07;5.13;;;;;;;;;;5139342;27;20224;-93
2022/04/14 12:59:24;;;;;;;11.83;5.40;;;;;;;;;;5118423;27;20204;-92
2022/04/14 13:01:59;;;;;;;7.27;6.00;;;;;;;;;;5125135;28;20209;-93
2022/04/14 13:04:33;;;;;;;10.80;6.07;;;;;;;;;;5128463;28;20203;-92
2022/04/14 13:07:05;;;;;;;10.43;5.80;;;;;;;;;;5133799;28;20225;-92
2022/04/14 13:09:35;;;;;;;14.23;6.33;;;;;;;;;;5130291;27;20224;-91
2022/04/14 13:12:02;;;;;;;7.37;4.80;;;;;;;;;;5129883;27;20210;-93
2022/04/14 13:14:30;;;;;;;8.87;5.03;;;;;;;;;;5143759;27;20186;-91
2022/04/14 13:16:58;;;;;;;7.33;5.30;;;;;;;;;;5132558;27;20222;-92
2022/04/14 13:19:26;;;;;;;9.27;5.73;;;;;;;;;;5125997;28;20199;-94
2022/04/14 13:21:53;;;;;;;10.83;6.97;;;;;;;;;;5129283;28;20210;-91
2022/04/14 13:24:24;;;;;;;10.87;5.97;;;;;;;;;;5130414;28;20206;-92
2022/04/14 13:26:54;;;;;;;10.57;6.13;;;;;;;;;;5127411;28;20249;-92
2022/04/14 13:29:21;;;;;;;8.57;5.80;;;;;;;;;;5133119;27;20205;-92
2022/04/14 13:31:51;;;;;;;7.87;6.07;;;;;;;;;;5129097;27;20224;-92
2022/04/14 13:34:18;;;;;;;10.90;6.20;;;;;;;;;;5126269;28;20217;-91
2022/04/14 13:36:46;;;;;;;12.07;6.70;;;;;;;;;;5125392;28;20226;-92
2022/04/14 13:39:13;;;;;;;7.37;5.03;;;;;;;;;;5122926;28;20212;-92
2022/04/14 13:41:41;;;;;;;8.53;5.57;;;;;;;;;;5117211;28;20213;-92
2022/04/14 13:44:10;;;;;;;8.40;5.77;;;;;;;;;;5117851;27;20697;-92
2022/04/14 13:46:37;;;;;;;9.67;5.10;;;;;;;;;;5122541;27;20255;-92
2022/04/14 13:49:04;;;;;;;5.37;4.37;;;;;;;;;;5137546;27;20215;-92
2022/04/14 13:51:32;;;;;;;5.90;4.73;;;;;;;;;;5114319;27;20225;-92
2022/04/14 13:54:00;;;;;;;7.07;4.30;;;;;;;;;;5129144;27;20201;-92
2022/04/14 13:56:28;;;;;;;9.47;4.90;;;;;;;;;;5143745;27;20212;-90
2022/04/14 13:58:56;;;;;;;6.30;3.53;;;;;;;;;;5155439;27;20249;-90
2022/04/14 14:01:24;;;;;;;11.17;5.23;;;;;;;;;;5154323;27;20188;-90
2022/04/14 14:03:54;;;;;;;9.47;4.87;;;;;;;;;;5124358;28;20209;-91
2022/04/14 14:06:21;;;;;;;6.60;4.17;;;;;;;;;;5135947;27;20217;-92
2022/04/14 14:08:48;;;;;;;7.93;3.90;;;;;;;;;;5149512;27;20222;-91
2022/04/14 14:11:16;;;;;;;6.97;4.03;;;;;;;;;;5149358;27;20224;-91
2022/04/14 14:13:44;;;;;;;4.50;4.03;;;;;;;;;;5141336;27;20196;-91
2022/04/14 14:16:11;;;;;;;10.00;4.77;;;;;;;;;;5128488;27;20182;-92
2022/04/14 14:18:40;;;;;;;6.00;4.27;;;;;;;;;;5138098;27;20200;-91
2022/04/14 14:21:08;;;;;;;5.37;3.77;;;;;;;;;;5140808;27;20215;-92
2022/04/14 14:23:35;;;;;;;6.33;4.77;;;;;;;;;;5133832;27;20210;-92
2022/04/14 14:26:02;;;;;;;8.13;4.57;;;;;;;;;;5127767;27;20212;-91
2022/04/14 14:28:30;;;;;;;13.00;5.17;;;;;;;;;;5125821;27;20630;-93
2022/04/14 14:30:57;;;;;;;9.67;4.57;;;;;;;;;;5118715;28;20212;-93
2022/04/14 14:33:25;;;;;;;8.07;5.30;;;;;;;;;;5120220;28;20203;-93
2022/04/14 14:35:54;;;;;;;9.07;5.60;;;;;;;;;;5115400;28;20468;-92
2022/04/14 14:38:21;;;;;;;9.30;5.70;;;;;;;;;;5119910;28;20220;-92
2022/04/14 14:40:48;;;;;;;8.23;5.00;;;;;;;;;;5123770;28;20200;-92
2022/04/14 14:43:16;;;;;;;8.27;5.53;;;;;;;;;;5130990;27;20244;-92
2022/04/14 14:45:47;;;;;;;6.30;4.87;;;;;;;;;;5127419;27;20235;-92
2022/04/14 14:48:17;;;;;;;8.97;5.97;;;;;;;;;;5117019;27;20245;-90
2022/04/14 14:50:45;;;;;;;11.27;5.80;;;;;;;;;;5115874;27;20228;-92
2022/04/14 14:53:13;;;;;;;10.30;5.77;;;;;;;;;;5113842;27;20258;-92